createdAt,value
2022-08-12T00:03:17.771Z,0
2022-08-12T00:06:42.915Z,0
2022-08-12T00:10:08.165Z,0
2022-08-12T00:13:33.431Z,0
2022-08-12T00:16:58.661Z,0
2022-08-12T00:20:23.936Z,0
2022-08-12T00:23:49.189Z,0
2022-08-12T00:27:14.449Z,0
2022-08-12T00:30:39.703Z,0
2022-08-12T00:34:05.128Z,0
2022-08-12T00:37:30.209Z,0
2022-08-12T00:40:55.472Z,0
2022-08-12T00:44:20.675Z,0
2022-08-12T00:47:45.889Z,0
2022-08-12T00:51:11.109Z,0
2022-08-12T00:54:36.306Z,0
2022-08-12T00:58:01.520Z,0
2022-08-12T01:01:26.766Z,0
2022-08-12T01:04:51.933Z,0
2022-08-12T01:08:17.124Z,0
2022-08-12T01:11:42.339Z,0
2022-08-12T01:15:07.566Z,0
2022-08-12T01:18:32.773Z,0
2022-08-12T01:21:57.973Z,0
2022-08-12T01:25:23.173Z,0
2022-08-12T01:28:48.430Z,0
2022-08-12T01:32:13.620Z,0
2022-08-12T01:35:38.835Z,0
2022-08-12T01:39:04.034Z,0
2022-08-12T01:42:29.261Z,0
2022-08-12T01:45:57.513Z,0
2022-08-12T01:49:21.682Z,0
2022-08-12T01:52:44.858Z,0
2022-08-12T01:56:10.070Z,0
2022-08-12T01:59:35.274Z,0
2022-08-12T02:03:00.505Z,0
2022-08-12T02:06:25.697Z,0
2022-08-12T02:09:50.940Z,0
2022-08-12T02:13:16.130Z,0
2022-08-12T02:16:41.367Z,0
2022-08-12T02:20:07.145Z,0
2022-08-12T02:23:32.381Z,0
2022-08-12T02:26:57.612Z,0
2022-08-12T02:30:22.821Z,0
2022-08-12T02:33:48.009Z,0
2022-08-12T02:37:13.189Z,0
2022-08-12T02:40:38.435Z,0
2022-08-12T02:44:03.664Z,0
2022-08-12T02:47:58.939Z,0
2022-08-12T02:50:54.093Z,0
2022-08-12T02:54:19.261Z,0
2022-08-12T02:57:44.471Z,0
2022-08-12T03:01:09.814Z,0
2022-08-12T03:04:34.895Z,0
2022-08-12T03:08:00.411Z,0
2022-08-12T03:11:25.326Z,0
2022-08-12T03:14:50.555Z,0
2022-08-12T03:18:25.019Z,0
2022-08-12T03:21:52.533Z,0
2022-08-12T03:25:06.182Z,0
2022-08-12T03:28:31.413Z,0
2022-08-12T03:31:56.627Z,0
2022-08-12T03:35:37.040Z,0
2022-08-12T03:38:47.133Z,0
2022-08-12T03:42:12.392Z,0
2022-08-12T03:45:42.089Z,0
2022-08-12T03:49:02.913Z,0
2022-08-12T03:52:28.171Z,0
2022-08-12T03:55:53.436Z,0
2022-08-12T03:59:18.697Z,0
2022-08-12T04:02:43.928Z,0
2022-08-12T04:06:09.211Z,0
2022-08-12T04:09:34.454Z,0
2022-08-12T04:12:59.666Z,0
2022-08-12T04:16:24.887Z,0
2022-08-12T04:19:50.112Z,0
2022-08-12T04:23:16.725Z,0
2022-08-12T04:26:40.515Z,0
2022-08-12T04:30:16.257Z,0
2022-08-12T04:33:30.923Z,0
2022-08-12T04:36:56.150Z,0
2022-08-12T04:40:28.378Z,0
2022-08-12T04:43:54.248Z,0
2022-08-12T04:47:11.772Z,0
2022-08-12T04:50:37.385Z,0
2022-08-12T04:54:02.173Z,0
2022-08-12T04:57:27.394Z,6
2022-08-12T05:00:52.618Z,6
2022-08-12T05:04:17.835Z,6
2022-08-12T05:07:45.673Z,6
2022-08-12T05:11:08.312Z,11
2022-08-12T05:14:37.460Z,17
2022-08-12T05:17:59.936Z,17
2022-08-12T05:21:24.044Z,17
2022-08-12T05:24:49.276Z,17
2022-08-12T05:28:14.511Z,23
2022-08-12T05:31:40.676Z,23
2022-08-12T05:35:04.985Z,23
2022-08-12T05:38:30.187Z,23
2022-08-12T05:41:55.450Z,23
2022-08-12T05:45:20.646Z,23
2022-08-12T05:48:45.861Z,23
2022-08-12T05:52:11.076Z,23
2022-08-12T05:55:36.301Z,28
2022-08-12T05:59:01.538Z,28
2022-08-12T06:02:26.736Z,34
2022-08-12T06:05:54.731Z,34
2022-08-12T06:09:17.254Z,39
2022-08-12T06:12:42.651Z,39
2022-08-12T06:16:07.771Z,39
2022-08-12T06:20:22.177Z,45
2022-08-12T06:22:58.169Z,45
2022-08-12T06:26:23.420Z,45
2022-08-12T06:30:07.682Z,51
2022-08-12T06:33:22.656Z,51
2022-08-12T06:36:39.059Z,51
2022-08-12T06:40:04.430Z,51
2022-08-12T06:43:29.509Z,51
2022-08-12T06:46:54.712Z,51
2022-08-12T06:50:19.923Z,45
2022-08-12T06:53:45.136Z,45
2022-08-12T06:57:57.634Z,39
2022-08-12T07:00:35.668Z,34
2022-08-12T07:04:09.448Z,34
2022-08-12T07:07:26.036Z,34
2022-08-12T07:10:51.332Z,34
2022-08-12T07:14:17.146Z,28
2022-08-12T07:17:42.351Z,28
2022-08-12T07:21:07.600Z,28
2022-08-12T07:24:32.873Z,28
2022-08-12T07:27:58.075Z,28
2022-08-12T07:31:23.284Z,34
2022-08-12T07:34:48.542Z,34
2022-08-12T07:38:13.784Z,39
2022-08-12T07:41:39.028Z,39
2022-08-12T07:45:04.295Z,39
2022-08-12T07:48:29.555Z,45
2022-08-12T07:51:54.777Z,45
2022-08-12T07:55:20.027Z,51
2022-08-12T07:58:47.178Z,56
2022-08-12T08:02:10.658Z,51
2022-08-12T08:05:35.871Z,56
2022-08-12T08:09:01.154Z,56
2022-08-12T08:12:26.401Z,56
2022-08-12T08:16:02.789Z,51
2022-08-12T08:19:16.892Z,51
2022-08-12T08:22:42.654Z,51
2022-08-12T08:26:07.386Z,51
2022-08-12T08:29:32.661Z,6
2022-08-12T08:32:57.922Z,51
2022-08-12T08:36:23.468Z,45
2022-08-12T08:39:48.416Z,45
2022-08-12T08:43:13.556Z,45
2022-08-12T08:46:38.762Z,39
2022-08-12T08:50:03.977Z,34
2022-08-12T08:53:29.166Z,34
2022-08-12T08:56:54.426Z,34
2022-08-12T09:00:19.633Z,34
2022-08-12T09:04:21.668Z,28
2022-08-12T09:07:17.525Z,28
2022-08-12T09:10:35.263Z,28
2022-08-12T09:14:09.890Z,28
2022-08-12T09:17:25.662Z,34
2022-08-12T09:20:51.033Z,28
2022-08-12T09:24:16.271Z,34
2022-08-12T09:32:04.436Z,34
2022-08-12T09:34:34.235Z,39
2022-08-12T09:37:58.627Z,34
2022-08-12T09:42:08.271Z,51
2022-08-12T09:44:47.460Z,45
2022-08-12T09:48:19.622Z,23
2022-08-12T09:51:43.484Z,51
2022-08-12T09:55:03.718Z,34
2022-08-12T09:58:46.275Z,51
2022-08-12T10:02:40.006Z,73
2022-08-12T10:05:20.498Z,68
2022-08-12T10:08:44.144Z,62
2022-08-12T10:12:11.020Z,62
2022-08-12T10:16:01.392Z,68
2022-08-12T10:19:01.509Z,73
2022-08-12T10:22:39.592Z,73
2022-08-12T10:26:10.081Z,73
2022-08-12T10:30:02.485Z,79
2022-08-12T10:32:43.541Z,79
2022-08-12T10:36:07.800Z,79
2022-08-12T10:40:02.349Z,84
2022-08-12T10:43:00.418Z,84
2022-08-12T10:46:23.547Z,90
2022-08-12T10:50:05.217Z,90
2022-08-12T10:53:15.682Z,90
2022-08-12T10:56:39.272Z,96
2022-08-12T11:00:29.838Z,96
2022-08-12T11:04:21.672Z,96
2022-08-12T11:07:04.414Z,96
2022-08-12T11:10:20.403Z,96
2022-08-12T11:13:46.381Z,96
2022-08-12T11:17:33.481Z,96
2022-08-12T11:20:36.145Z,96
2022-08-12T11:24:01.827Z,96
2022-08-12T11:27:28.744Z,96
2022-08-12T11:30:53.594Z,96
2022-08-12T11:34:52.230Z,96
2022-08-12T11:37:57.804Z,96
2022-08-12T11:41:07.584Z,90
2022-08-12T11:44:36.430Z,90
2022-08-12T11:47:58.114Z,90
2022-08-12T11:51:23.388Z,90
2022-08-12T11:54:50.890Z,90
2022-08-12T11:59:02.877Z,90
2022-08-12T12:02:00.555Z,90
2022-08-12T12:05:04.428Z,84
2022-08-12T12:08:36.830Z,84
2022-08-12T12:11:55.087Z,84
2022-08-12T12:15:25.006Z,84
2022-08-12T12:18:46.277Z,84
2022-08-12T12:22:11.541Z,84
2022-08-12T12:25:59.901Z,84
2022-08-12T12:29:03.356Z,84
2022-08-12T12:32:29.131Z,84
2022-08-12T12:36:06.929Z,84
2022-08-12T12:39:17.954Z,84
2022-08-12T12:42:54.452Z,79
2022-08-12T12:46:08.752Z,84
2022-08-12T12:49:33.735Z,79
2022-08-12T12:52:59.403Z,73
2022-08-12T12:56:34.352Z,79
2022-08-12T12:59:56.796Z,51
2022-08-12T13:03:19.240Z,84
2022-08-12T13:06:40.450Z,39
2022-08-12T13:10:05.695Z,84
2022-08-12T13:14:08.503Z,90
2022-08-12T13:16:56.374Z,84
2022-08-12T13:20:37.617Z,34
2022-08-12T13:23:46.667Z,23
2022-08-12T13:27:11.924Z,23
2022-08-12T13:30:37.180Z,23
2022-08-12T13:34:28.768Z,23
2022-08-12T13:37:27.691Z,23
2022-08-12T13:40:52.938Z,17
2022-08-12T13:44:18.226Z,56
2022-08-12T13:47:43.492Z,62
2022-08-12T13:51:08.730Z,68
2022-08-12T13:54:34.010Z,23
2022-08-12T13:57:59.755Z,23
2022-08-12T14:01:24.568Z,23
2022-08-12T14:04:55.869Z,56
2022-08-12T14:08:15.082Z,62
2022-08-12T14:11:40.328Z,73
2022-08-12T14:15:05.589Z,73
2022-08-12T14:18:30.851Z,62
2022-08-12T14:21:59.010Z,23
2022-08-12T14:25:21.414Z,17
2022-08-12T14:28:57.942Z,17
2022-08-12T15:06:03.659Z,17
2022-08-12T15:08:51.385Z,39
2022-08-12T15:12:16.672Z,39
2022-08-12T15:15:43.614Z,39
2022-08-12T15:19:07.253Z,39
2022-08-12T15:22:36.278Z,28
2022-08-12T15:25:59.991Z,11
2022-08-12T15:29:23.050Z,17
2022-08-12T15:32:48.742Z,17
2022-08-12T15:36:13.981Z,11
2022-08-12T15:39:39.238Z,28
2022-08-12T15:43:04.495Z,17
2022-08-12T15:46:29.754Z,6
2022-08-12T15:50:00.181Z,23
2022-08-12T15:53:20.277Z,6
2022-08-12T15:56:45.551Z,17
2022-08-12T16:00:28.932Z,23
2022-08-12T16:03:45.543Z,23
2022-08-12T16:07:05.699Z,23
2022-08-12T16:10:30.655Z,23
2022-08-12T16:13:51.791Z,17
2022-08-12T16:17:17.062Z,17
2022-08-12T16:20:42.317Z,17
2022-08-12T16:24:07.684Z,17
2022-08-12T16:27:38.260Z,23
2022-08-12T16:30:58.231Z,28
2022-08-12T16:34:25.546Z,28
2022-08-12T16:38:15.617Z,23
2022-08-12T16:41:14.317Z,17
2022-08-12T16:44:43.070Z,17
2022-08-12T16:48:05.136Z,17
2022-08-12T16:51:30.177Z,6
2022-08-12T16:54:55.435Z,11
2022-08-12T16:58:28.663Z,11
2022-08-12T17:01:49.023Z,6
2022-08-12T17:05:14.234Z,6
2022-08-12T17:08:39.622Z,6
2022-08-12T17:12:05.026Z,11
2022-08-12T17:15:51.454Z,11
2022-08-12T17:18:57.933Z,11
2022-08-12T17:22:21.554Z,11
2022-08-12T17:25:48.299Z,11
2022-08-12T17:29:11.860Z,11
2022-08-12T17:32:37.393Z,6
2022-08-12T17:36:02.490Z,6
2022-08-12T17:39:30.200Z,6
2022-08-12T17:42:53.535Z,6
2022-08-12T17:46:24.240Z,6
2022-08-12T17:50:02.775Z,0
2022-08-12T17:53:10.220Z,0
2022-08-12T17:56:35.704Z,0
2022-08-12T18:00:01.068Z,0
2022-08-12T18:03:57.788Z,0
2022-08-12T18:06:52.743Z,0
2022-08-12T18:10:18.102Z,0
2022-08-12T18:13:43.384Z,0
2022-08-12T18:17:09.775Z,0
2022-08-12T18:20:36.572Z,0
2022-08-12T18:23:59.230Z,0
2022-08-12T18:27:28.156Z,0
2022-08-12T18:30:52.670Z,0
2022-08-12T18:34:15.145Z,0
2022-08-12T18:37:41.415Z,0
2022-08-12T18:41:05.994Z,0
2022-08-12T18:44:30.951Z,0
2022-08-12T18:47:56.186Z,0
2022-08-12T18:51:21.802Z,0
2022-08-12T18:54:49.425Z,0
2022-08-12T18:58:11.969Z,0
2022-08-12T19:02:13.538Z,0
2022-08-12T19:05:06.663Z,0
2022-08-12T19:08:27.848Z,0
2022-08-12T19:11:53.089Z,0
2022-08-12T19:15:18.353Z,0
2022-08-12T19:18:44.455Z,0
2022-08-12T19:22:08.897Z,0
2022-08-12T19:25:59.894Z,0
2022-08-12T19:28:59.560Z,0
2022-08-12T19:32:27.056Z,0
2022-08-12T19:35:59.040Z,0
2022-08-12T19:39:22.764Z,0
2022-08-12T19:42:42.142Z,0
2022-08-12T19:46:06.085Z,0
2022-08-12T19:49:31.371Z,0
2022-08-12T19:52:56.620Z,0
2022-08-12T19:56:21.907Z,0
2022-08-12T20:00:03.857Z,0
2022-08-12T20:03:37.717Z,0
2022-08-12T20:06:37.846Z,0
2022-08-12T20:10:03.162Z,0
2022-08-12T20:13:37.367Z,0
2022-08-12T20:16:54.353Z,0
2022-08-12T20:20:21.179Z,0
2022-08-12T20:23:50.626Z,0
2022-08-12T20:27:10.365Z,0
2022-08-12T20:30:35.127Z,0
2022-08-12T20:34:00.321Z,0
2022-08-12T20:38:05.233Z,0
2022-08-12T20:40:50.975Z,0
2022-08-12T20:44:16.927Z,0
2022-08-12T20:47:41.835Z,0
2022-08-12T20:51:06.842Z,0
2022-08-12T20:54:32.433Z,0
2022-08-12T20:58:02.352Z,0
2022-08-12T21:01:29.150Z,0
2022-08-12T21:04:47.922Z,0
2022-08-12T21:08:13.187Z,0
2022-08-12T21:11:38.428Z,0
2022-08-12T21:15:18.392Z,0
2022-08-12T21:18:30.815Z,0
2022-08-12T21:21:54.203Z,0
2022-08-12T21:25:19.476Z,0
2022-08-12T21:28:56.620Z,0
2022-08-12T21:32:35.732Z,0
2022-08-12T21:35:35.787Z,0
2022-08-12T21:39:00.601Z,0
2022-08-12T21:42:27.919Z,0
2022-08-12T21:46:00.312Z,0
2022-08-12T21:49:16.410Z,0
2022-08-12T21:52:42.022Z,0
2022-08-12T21:56:06.990Z,0
2022-08-12T21:59:32.259Z,0
2022-08-12T22:02:57.525Z,0
2022-08-12T22:06:26.708Z,0
2022-08-12T22:09:48.124Z,0
2022-08-12T22:14:02.865Z,0
2022-08-12T22:16:38.708Z,0
2022-08-12T22:20:03.984Z,0
2022-08-12T22:23:51.184Z,0
2022-08-12T22:26:54.593Z,0
2022-08-12T22:30:20.237Z,0
2022-08-12T22:33:50.928Z,0
2022-08-12T22:37:11.249Z,0
2022-08-12T22:40:35.902Z,0
2022-08-12T22:44:02.010Z,0
2022-08-12T22:47:31.418Z,0
2022-08-12T22:50:51.996Z,0
2022-08-12T22:54:35.391Z,0
2022-08-12T22:57:49.630Z,0
2022-08-12T23:01:08.086Z,0
2022-08-12T23:04:33.262Z,0
2022-08-12T23:07:59.037Z,0
2022-08-12T23:11:25.361Z,0
2022-08-12T23:14:49.269Z,0
2022-08-12T23:18:14.588Z,0
2022-08-12T23:21:40.220Z,0
2022-08-12T23:25:05.314Z,0
2022-08-12T23:28:31.117Z,0
2022-08-12T23:32:01.732Z,0
2022-08-12T23:35:22.538Z,0
2022-08-12T23:38:46.636Z,0
2022-08-12T23:42:17.221Z,0
2022-08-12T23:45:37.287Z,0
2022-08-12T23:49:02.563Z,0
2022-08-12T23:52:28.688Z,0
2022-08-12T23:55:53.170Z,0
2022-08-12T23:59:18.450Z,0
